createdAt,value
2019-05-01T00:00:41.901Z,12.85
2019-05-01T00:03:29.324Z,12.73
2019-05-01T00:06:04.328Z,10.48
2019-05-01T00:08:31.378Z,10.58
2019-05-01T00:10:58.608Z,9.83
2019-05-01T00:13:26.805Z,8.78
2019-05-01T00:15:54.575Z,9.73
2019-05-01T00:18:22.643Z,10.70
2019-05-01T00:20:49.691Z,10.58
2019-05-01T00:23:16.867Z,7.28
2019-05-01T00:25:43.898Z,8.28
2019-05-01T00:28:10.971Z,10.05
2019-05-01T00:30:38.032Z,6.72
2019-05-01T00:33:05.157Z,8.35
2019-05-01T00:35:32.208Z,10.70
2019-05-01T00:37:59.283Z,7.80
2019-05-01T00:40:26.321Z,10.30
2019-05-01T00:42:53.487Z,9.80
2019-05-01T00:45:20.506Z,8.00
2019-05-01T00:47:47.560Z,7.62
2019-05-01T00:50:14.595Z,8.48
2019-05-01T00:52:41.755Z,9.13
2019-05-01T00:55:28.550Z,7.45
2019-05-01T00:58:14.951Z,8.45
2019-05-01T01:00:52.882Z,5.53
2019-05-01T01:03:20.206Z,7.35
2019-05-01T01:05:47.244Z,6.00
2019-05-01T01:08:14.807Z,6.83
2019-05-01T01:10:41.857Z,5.67
2019-05-01T01:13:08.926Z,6.87
2019-05-01T01:15:35.975Z,8.30
2019-05-01T01:18:03.317Z,5.83
2019-05-01T01:20:30.474Z,6.72
2019-05-01T01:22:57.807Z,6.45
2019-05-01T01:25:26.002Z,6.95
2019-05-01T01:27:53.162Z,6.70
2019-05-01T01:30:20.260Z,5.78
2019-05-01T01:32:47.412Z,5.87
2019-05-01T01:35:15.936Z,6.37
2019-05-01T01:37:44.818Z,5.87
2019-05-01T01:40:12.487Z,5.78
2019-05-01T01:42:40.579Z,7.72
2019-05-01T01:45:16.157Z,5.28
2019-05-01T01:48:02.829Z,6.25
2019-05-01T01:50:30.160Z,8.13
2019-05-01T01:52:57.427Z,7.75
2019-05-01T01:55:26.428Z,6.97
2019-05-01T01:57:54.278Z,7.75
2019-05-01T02:00:23.465Z,8.53
2019-05-01T02:02:52.264Z,6.20
2019-05-01T02:05:21.210Z,7.78
2019-05-01T02:07:48.263Z,10.23
2019-05-01T02:10:15.583Z,5.70
2019-05-01T02:12:43.491Z,6.37
2019-05-01T02:15:10.591Z,6.97
2019-05-01T02:17:37.620Z,6.20
2019-05-01T02:20:06.901Z,7.05
2019-05-01T02:22:33.960Z,5.10
2019-05-01T02:25:04.287Z,6.10
2019-05-01T02:27:33.231Z,6.67
2019-05-01T02:30:02.142Z,10.58
2019-05-01T02:32:29.540Z,9.05
2019-05-01T02:34:57.186Z,9.05
2019-05-01T02:37:25.617Z,7.30
2019-05-01T02:39:55.218Z,9.65
2019-05-01T02:42:24.440Z,5.83
2019-05-01T02:44:51.933Z,7.45
2019-05-01T02:47:24.911Z,8.03
2019-05-01T02:50:01.461Z,4.95
2019-05-01T02:52:32.140Z,6.58
2019-05-01T02:55:03.479Z,7.45
2019-05-01T02:57:31.391Z,7.12
2019-05-01T02:59:58.882Z,9.23
2019-05-01T03:02:27.491Z,9.58
2019-05-01T03:04:56.500Z,8.68
2019-05-01T03:07:26.977Z,7.70
2019-05-01T03:09:54.013Z,7.58
2019-05-01T03:12:24.656Z,6.37
2019-05-01T03:14:54.522Z,7.50
2019-05-01T03:17:32.405Z,8.95
2019-05-01T03:20:07.443Z,4.65
2019-05-01T03:22:37.162Z,5.50
2019-05-01T03:25:06.091Z,3.58
2019-05-01T03:27:33.307Z,4.90
2019-05-01T03:30:00.724Z,5.12
2019-05-01T03:32:27.917Z,4.40
2019-05-01T03:34:56.047Z,3.65
2019-05-01T03:37:23.661Z,2.72
2019-05-01T03:39:52.511Z,3.42
2019-05-01T03:42:20.054Z,2.58
2019-05-01T03:44:47.082Z,3.60
2019-05-01T03:47:14.273Z,3.15
2019-05-01T03:49:43.111Z,2.45
2019-05-01T03:52:10.346Z,3.10
2019-05-01T03:54:37.618Z,1.95
2019-05-01T03:57:04.714Z,1.90
2019-05-01T03:59:32.690Z,2.60
2019-05-01T04:02:12.961Z,4.45
2019-05-01T04:04:39.989Z,2.17
2019-05-01T04:07:07.234Z,2.58
2019-05-01T04:09:34.458Z,2.33
2019-05-01T04:12:01.647Z,1.55
2019-05-01T04:14:29.581Z,4.45
2019-05-01T04:16:58.945Z,3.10
2019-05-01T04:19:27.315Z,2.58
2019-05-01T04:21:56.324Z,2.02
2019-05-01T04:24:23.409Z,2.65
2019-05-01T04:26:50.580Z,4.60
2019-05-01T04:29:22.169Z,4.42
2019-05-01T04:31:54.249Z,3.30
2019-05-01T04:34:23.230Z,3.55
2019-05-01T04:36:58.414Z,2.90
2019-05-01T04:39:26.556Z,2.40
2019-05-01T04:41:53.665Z,2.65
2019-05-01T04:44:23.548Z,2.85
2019-05-01T04:46:53.921Z,2.17
2019-05-01T04:49:22.339Z,2.83
2019-05-01T04:51:49.621Z,3.12
2019-05-01T04:54:16.727Z,2.30
2019-05-01T04:56:43.892Z,3.05
2019-05-01T04:59:10.986Z,2.52
2019-05-01T05:01:56.456Z,1.87
2019-05-01T05:04:22.758Z,2.52
2019-05-01T05:06:50.340Z,3.33
2019-05-01T05:09:19.348Z,3.02
2019-05-01T05:11:48.210Z,2.55
2019-05-01T05:14:20.199Z,2.33
2019-05-01T05:16:52.948Z,2.37
2019-05-01T05:19:19.969Z,2.00
2019-05-01T05:21:47.213Z,2.00
2019-05-01T05:24:14.473Z,2.25
2019-05-01T05:26:41.548Z,1.85
2019-05-01T05:29:09.005Z,2.27
2019-05-01T05:31:36.608Z,2.27
2019-05-01T05:34:04.968Z,1.85
2019-05-01T05:36:33.921Z,3.72
2019-05-01T05:39:24.331Z,3.08
2019-05-01T05:41:54.544Z,1.87
2019-05-01T05:44:22.047Z,1.92
2019-05-01T05:46:51.613Z,1.95
2019-05-01T05:49:19.437Z,1.90
2019-05-01T05:51:56.409Z,2.77
2019-05-01T05:54:31.912Z,2.10
2019-05-01T05:57:01.964Z,2.58
2019-05-01T05:59:45.867Z,2.33
2019-05-01T06:02:17.905Z,1.70
2019-05-01T06:04:50.328Z,2.22
2019-05-01T06:07:25.509Z,1.50
2019-05-01T06:10:07.193Z,1.62
2019-05-01T06:12:48.558Z,3.22
2019-05-01T06:15:29.806Z,2.55
2019-05-01T06:17:59.196Z,2.80
2019-05-01T06:20:29.268Z,2.10
2019-05-01T06:23:06.245Z,2.10
2019-05-01T06:25:36.768Z,2.83
2019-05-01T06:28:04.226Z,3.67
2019-05-01T06:30:32.238Z,3.87
2019-05-01T06:32:59.366Z,3.02
2019-05-01T06:35:27.231Z,3.45
2019-05-01T06:38:00.628Z,5.05
2019-05-01T06:40:39.705Z,2.70
2019-05-01T06:43:11.982Z,2.37
2019-05-01T06:45:41.270Z,1.40
2019-05-01T06:48:22.486Z,2.67
2019-05-01T06:50:52.502Z,2.40
2019-05-01T06:53:21.523Z,1.45
2019-05-01T06:55:51.466Z,4.03
2019-05-01T06:58:20.359Z,2.75
2019-05-01T07:00:47.173Z,5.80
2019-05-01T07:03:14.234Z,5.90
2019-05-01T07:05:44.414Z,9.15
2019-05-01T07:08:10.212Z,16.30
2019-05-01T07:10:44.293Z,15.50
2019-05-01T07:13:06.594Z,9.78
2019-05-01T07:15:33.869Z,12.90
2019-05-01T07:18:01.952Z,22.27
2019-05-01T07:20:47.218Z,16.65
2019-05-01T07:23:12.809Z,13.78
2019-05-01T07:25:40.690Z,14.70
2019-05-01T07:28:08.030Z,11.57
2019-05-01T07:30:41.453Z,16.52
2019-05-01T07:33:11.956Z,13.25
2019-05-01T07:35:37.980Z,14.58
2019-05-01T07:38:05.651Z,9.45
2019-05-01T07:40:33.101Z,11.95
2019-05-01T07:43:10.830Z,29.52
2019-05-01T07:45:54.924Z,19.45
2019-05-01T07:48:31.591Z,14.63
2019-05-01T07:51:01.889Z,16.17
2019-05-01T07:53:28.637Z,17.37
2019-05-01T07:55:56.847Z,20.92
2019-05-01T07:58:24.193Z,11.05
2019-05-01T08:00:53.080Z,10.58
2019-05-01T08:03:20.085Z,13.32
2019-05-01T08:05:48.161Z,11.88
2019-05-01T08:08:15.186Z,11.53
2019-05-01T08:10:42.279Z,13.38
2019-05-01T08:13:09.296Z,12.82
2019-05-01T08:15:36.426Z,13.68
2019-05-01T08:18:17.287Z,14.28
2019-05-01T08:21:04.090Z,12.47
2019-05-01T08:23:31.088Z,12.73
2019-05-01T08:25:58.189Z,10.55
2019-05-01T08:28:33.354Z,21.30
2019-05-01T08:31:02.358Z,16.75
2019-05-01T08:33:33.463Z,12.20
2019-05-01T08:36:00.558Z,16.40
2019-05-01T08:38:29.839Z,15.50
2019-05-01T08:40:56.839Z,12.10
2019-05-01T08:43:23.903Z,14.68
2019-05-01T08:46:11.819Z,12.85
2019-05-01T08:48:43.662Z,14.15
2019-05-01T08:51:10.809Z,18.62
2019-05-01T08:53:37.985Z,14.10
2019-05-01T08:56:05.245Z,10.65
2019-05-01T08:58:32.427Z,12.30
2019-05-01T09:00:59.566Z,9.88
2019-05-01T09:03:26.780Z,11.73
2019-05-01T09:05:57.564Z,15.80
2019-05-01T09:08:26.911Z,10.98
2019-05-01T09:10:54.616Z,13.58
2019-05-01T09:13:23.795Z,10.20
2019-05-01T09:15:49.597Z,14.33
2019-05-01T09:18:18.877Z,11.20
2019-05-01T09:20:47.353Z,11.05
2019-05-01T09:23:14.686Z,8.70
2019-05-01T09:25:44.953Z,8.33
2019-05-01T09:28:22.850Z,11.10
2019-05-01T09:30:52.590Z,9.08
2019-05-01T09:33:19.700Z,7.42
2019-05-01T09:35:47.557Z,8.05
2019-05-01T09:38:14.674Z,14.93
2019-05-01T09:40:41.633Z,12.25
2019-05-01T09:43:08.853Z,8.58
2019-05-01T09:45:35.937Z,8.68
2019-05-01T09:48:03.144Z,6.78
2019-05-01T09:50:32.948Z,9.33
2019-05-01T09:53:25.562Z,8.85
2019-05-01T09:55:56.223Z,8.48
2019-05-01T09:58:23.363Z,6.12
2019-05-01T10:00:52.620Z,7.60
2019-05-01T10:03:22.048Z,6.47
2019-05-01T10:05:49.074Z,9.80
2019-05-01T10:08:16.162Z,7.75
2019-05-01T10:10:43.230Z,12.88
2019-05-01T10:13:10.269Z,9.40
2019-05-01T10:15:37.350Z,10.40
2019-05-01T10:18:04.395Z,8.38
2019-05-01T10:20:31.449Z,10.00
2019-05-01T10:22:58.433Z,9.35
2019-05-01T10:25:25.448Z,8.60
2019-05-01T10:27:57.400Z,9.43
2019-05-01T10:30:44.254Z,8.70
2019-05-01T10:33:19.179Z,11.68
2019-05-01T10:36:03.255Z,12.07
2019-05-01T10:38:30.282Z,9.37
2019-05-01T10:40:57.356Z,9.65
2019-05-01T10:43:24.357Z,10.85
2019-05-01T10:45:51.571Z,10.28
2019-05-01T10:48:18.585Z,13.70
2019-05-01T10:50:45.734Z,9.85
2019-05-01T10:53:12.767Z,9.78
2019-05-01T10:55:39.893Z,9.45
2019-05-01T10:58:06.959Z,9.58
2019-05-01T11:00:35.909Z,10.03
2019-05-01T11:03:03.830Z,12.65
2019-05-01T11:05:30.938Z,9.98
2019-05-01T11:07:58.096Z,9.70
2019-05-01T11:10:27.646Z,8.55
2019-05-01T11:12:54.854Z,10.38
2019-05-01T11:15:22.999Z,9.95
2019-05-01T11:17:50.134Z,10.25
2019-05-01T11:20:17.208Z,9.13
2019-05-01T11:22:44.251Z,8.60
2019-05-01T11:25:12.816Z,7.92
2019-05-01T11:27:39.857Z,10.58
2019-05-01T11:30:07.355Z,8.43
2019-05-01T11:32:39.187Z,10.78
2019-05-01T11:35:08.122Z,11.63
2019-05-01T11:37:36.890Z,9.38
2019-05-01T11:40:17.575Z,8.33
2019-05-01T11:42:44.616Z,9.30
2019-05-01T11:45:11.710Z,9.50
2019-05-01T11:47:38.827Z,9.10
2019-05-01T11:50:06.364Z,9.33
2019-05-01T11:52:33.391Z,8.63
2019-05-01T11:55:00.488Z,6.95
2019-05-01T11:57:27.485Z,7.22
2019-05-01T11:59:54.664Z,7.97
2019-05-01T12:02:21.698Z,9.63
2019-05-01T12:04:48.756Z,7.45
2019-05-01T12:07:15.783Z,8.90
2019-05-01T12:09:42.897Z,9.45
2019-05-01T12:12:14.365Z,8.90
2019-05-01T12:14:41.433Z,8.78
2019-05-01T12:17:10.231Z,9.28
2019-05-01T12:19:37.267Z,8.63
2019-05-01T12:22:06.574Z,10.98
2019-05-01T12:24:33.706Z,10.80
2019-05-01T12:27:00.706Z,12.15
2019-05-01T12:29:27.768Z,13.70
2019-05-01T12:31:55.578Z,11.63
2019-05-01T12:34:22.712Z,12.23
2019-05-01T12:36:51.599Z,10.50
2019-05-01T12:39:19.181Z,8.53
2019-05-01T12:41:48.027Z,9.93
2019-05-01T12:44:15.098Z,10.32
2019-05-01T12:46:46.635Z,8.38
2019-05-01T12:49:15.815Z,10.25
2019-05-01T12:51:44.298Z,11.83
2019-05-01T12:54:28.672Z,10.78
2019-05-01T12:56:58.227Z,10.68
2019-05-01T12:59:25.277Z,12.80
2019-05-01T13:01:52.330Z,12.07
2019-05-01T13:04:19.314Z,12.70
2019-05-01T13:06:49.708Z,10.50
2019-05-01T13:09:16.911Z,11.05
2019-05-01T13:11:43.896Z,16.80
2019-05-01T13:14:10.941Z,12.73
2019-05-01T13:16:37.978Z,12.50
2019-05-01T13:19:05.123Z,11.33
2019-05-01T13:21:32.158Z,13.05
2019-05-01T13:23:59.238Z,13.15
2019-05-01T13:26:28.048Z,13.25
2019-05-01T13:29:02.685Z,16.75
2019-05-01T13:31:38.018Z,11.60
2019-05-01T13:34:05.826Z,13.00
2019-05-01T13:36:32.966Z,12.13
2019-05-01T13:39:00.014Z,10.30
2019-05-01T13:41:27.144Z,13.22
2019-05-01T13:43:54.185Z,11.22
2019-05-01T13:46:21.288Z,14.40
2019-05-01T13:48:48.436Z,13.58
2019-05-01T13:51:15.566Z,11.38
2019-05-01T13:53:48.225Z,15.15
2019-05-01T13:56:18.381Z,14.80
2019-05-01T13:58:45.512Z,12.70
2019-05-01T14:01:26.051Z,13.98
2019-05-01T14:03:53.102Z,11.12
2019-05-01T14:06:20.206Z,15.25
2019-05-01T14:08:47.281Z,12.58
2019-05-01T14:11:14.388Z,13.43
2019-05-01T14:13:41.455Z,12.07
2019-05-01T14:16:08.438Z,13.48
2019-05-01T14:18:35.445Z,14.28
2019-05-01T14:21:14.256Z,12.78
2019-05-01T14:23:51.639Z,14.15
2019-05-01T14:26:18.707Z,14.05
2019-05-01T14:28:45.771Z,12.65
2019-05-01T14:31:12.857Z,11.97
2019-05-01T14:33:39.861Z,13.83
2019-05-01T14:36:06.901Z,16.20
2019-05-01T14:38:33.901Z,13.15
2019-05-01T14:41:00.936Z,14.68
2019-05-01T14:43:28.007Z,14.10
2019-05-01T14:45:56.039Z,15.80
2019-05-01T14:48:23.364Z,18.37
2019-05-01T14:50:50.400Z,15.20
2019-05-01T14:53:17.481Z,17.25
2019-05-01T14:55:44.488Z,21.25
2019-05-01T14:58:12.642Z,18.25
2019-05-01T15:00:39.605Z,19.27
2019-05-01T15:03:06.665Z,25.25
2019-05-01T15:05:33.680Z,21.55
2019-05-01T15:08:00.757Z,21.60
2019-05-01T15:10:27.808Z,18.17
2019-05-01T15:12:56.717Z,20.27
2019-05-01T15:15:25.489Z,21.95
2019-05-01T15:18:03.086Z,25.43
2019-05-01T15:20:30.099Z,20.43
2019-05-01T15:22:57.989Z,18.48
2019-05-01T15:25:25.076Z,23.80
2019-05-01T15:27:54.455Z,27.32
2019-05-01T15:30:21.479Z,28.17
2019-05-01T15:32:48.595Z,21.93
2019-05-01T15:35:15.612Z,19.73
2019-05-01T15:37:55.463Z,23.22
2019-05-01T15:40:20.358Z,29.67
2019-05-01T15:42:49.242Z,20.95
2019-05-01T15:45:16.575Z,20.00
2019-05-01T15:47:45.905Z,33.75
2019-05-01T15:50:13.520Z,22.93
2019-05-01T15:52:40.658Z,24.10
2019-05-01T15:55:07.832Z,16.37
2019-05-01T15:57:34.888Z,23.40
2019-05-01T16:00:04.793Z,23.12
2019-05-01T16:02:32.474Z,20.30
2019-05-01T16:04:59.505Z,21.80
2019-05-01T16:07:26.593Z,19.65
2019-05-01T16:09:54.593Z,23.38
2019-05-01T16:12:26.518Z,19.82
2019-05-01T16:14:53.541Z,22.98
2019-05-01T16:17:20.628Z,18.73
2019-05-01T16:19:47.645Z,20.97
2019-05-01T16:22:14.826Z,19.27
2019-05-01T16:24:41.864Z,25.20
2019-05-01T16:27:08.905Z,23.62
2019-05-01T16:29:35.943Z,26.10
2019-05-01T16:32:03.220Z,21.97
2019-05-01T16:34:30.255Z,24.10
2019-05-01T16:36:57.348Z,18.07
2019-05-01T16:39:43.747Z,27.17
2019-05-01T16:42:10.824Z,27.27
2019-05-01T16:44:37.867Z,29.40
2019-05-01T16:47:05.030Z,21.55
2019-05-01T16:49:32.026Z,33.65
2019-05-01T16:51:59.106Z,32.20
2019-05-01T16:54:26.254Z,34.18
2019-05-01T16:56:53.494Z,28.55
2019-05-01T16:59:23.023Z,33.50
2019-05-01T17:01:58.283Z,28.15
2019-05-01T17:04:27.322Z,27.67
2019-05-01T17:07:14.536Z,26.35
2019-05-01T17:10:02.086Z,19.57
2019-05-01T17:12:33.443Z,23.12
2019-05-01T17:15:00.623Z,23.12
2019-05-01T17:17:31.301Z,20.10
2019-05-01T17:19:58.539Z,33.50
2019-05-01T17:22:25.716Z,27.37
2019-05-01T17:24:52.913Z,29.05
2019-05-01T17:27:20.166Z,20.55
2019-05-01T17:29:47.320Z,24.23
2019-05-01T17:32:16.175Z,17.40
2019-05-01T17:34:43.257Z,42.90
2019-05-01T17:37:10.425Z,22.80
2019-05-01T17:39:37.483Z,19.55
2019-05-01T17:42:06.423Z,20.12
2019-05-01T17:44:33.456Z,30.40
2019-05-01T17:47:00.574Z,20.10
2019-05-01T17:49:27.591Z,24.20
2019-05-01T17:51:54.673Z,14.40
2019-05-01T17:54:21.637Z,11.00
2019-05-01T17:56:53.603Z,14.10
2019-05-01T17:59:17.598Z,11.65
2019-05-01T18:01:55.975Z,18.15
2019-05-01T18:04:31.618Z,17.75
2019-05-01T18:06:58.959Z,11.40
2019-05-01T18:09:25.965Z,24.30
2019-05-01T18:11:53.759Z,10.48
2019-05-01T18:14:22.325Z,12.43
2019-05-01T18:16:49.664Z,13.68
2019-05-01T18:19:16.706Z,18.60
2019-05-01T18:21:46.645Z,18.27
2019-05-01T18:24:33.686Z,12.07
2019-05-01T18:27:05.915Z,14.87
2019-05-01T18:29:44.988Z,28.00
2019-05-01T18:32:15.759Z,30.65
2019-05-01T18:34:43.691Z,30.92
2019-05-01T18:37:20.786Z,36.85
2019-05-01T18:39:49.285Z,22.75
2019-05-01T18:42:17.012Z,33.05
2019-05-01T18:44:47.427Z,27.27
2019-05-01T18:47:14.308Z,41.35
2019-05-01T18:49:43.145Z,30.90
2019-05-01T18:52:11.516Z,29.85
2019-05-01T18:54:38.989Z,33.80
2019-05-01T18:57:06.550Z,27.52
2019-05-01T18:59:34.439Z,29.82
2019-05-01T19:02:01.835Z,17.98
2019-05-01T19:04:32.201Z,41.00
2019-05-01T19:06:59.603Z,36.33
2019-05-01T19:09:30.578Z,34.75
2019-05-01T19:11:57.426Z,33.08
2019-05-01T19:14:28.714Z,30.40
2019-05-01T19:16:54.195Z,24.02
2019-05-01T19:19:21.468Z,19.55
2019-05-01T19:21:50.781Z,30.27
2019-05-01T19:24:18.665Z,28.70
2019-05-01T19:26:45.887Z,27.75
2019-05-01T19:29:14.345Z,26.02
2019-05-01T19:31:41.498Z,19.10
2019-05-01T19:34:08.476Z,23.73
2019-05-01T19:36:35.909Z,27.50
2019-05-01T19:39:06.785Z,25.55
2019-05-01T19:41:34.728Z,19.32
2019-05-01T19:44:01.799Z,20.23
2019-05-01T19:46:28.952Z,14.53
2019-05-01T19:48:55.940Z,26.57
2019-05-01T19:51:23.951Z,27.30
2019-05-01T19:53:53.461Z,25.90
2019-05-01T19:56:21.560Z,30.43
2019-05-01T19:58:50.871Z,30.80
2019-05-01T20:01:20.881Z,26.42
2019-05-01T20:03:56.419Z,30.27
2019-05-01T20:06:28.999Z,22.80
2019-05-01T20:08:59.544Z,27.42
2019-05-01T20:11:26.890Z,19.42
2019-05-01T20:13:54.565Z,34.63
2019-05-01T20:16:23.358Z,30.02
2019-05-01T20:18:51.918Z,25.23
2019-05-01T20:21:19.511Z,19.32
2019-05-01T20:23:46.722Z,24.87
2019-05-01T20:26:13.879Z,35.17
2019-05-01T20:28:42.084Z,42.70
2019-05-01T20:31:09.279Z,45.43
2019-05-01T20:33:40.921Z,38.83
2019-05-01T20:36:06.650Z,50.03
2019-05-01T20:38:33.985Z,36.13
2019-05-01T20:41:01.258Z,45.43
2019-05-01T20:43:28.394Z,37.15
2019-05-01T20:45:56.274Z,53.45
2019-05-01T20:48:25.588Z,63.73
2019-05-01T20:50:54.973Z,37.25
2019-05-01T20:53:22.054Z,54.35
2019-05-01T20:55:50.925Z,58.17
2019-05-01T20:58:19.172Z,72.85
2019-05-01T21:00:53.546Z,79.32
2019-05-01T21:03:19.605Z,55.70
2019-05-01T21:05:52.111Z,52.55
2019-05-01T21:08:20.995Z,41.55
2019-05-01T21:11:06.017Z,60.28
2019-05-01T21:13:31.045Z,52.98
2019-05-01T21:16:01.847Z,53.55
2019-05-01T21:18:27.791Z,34.88
2019-05-01T21:20:54.888Z,41.80
2019-05-01T21:23:23.330Z,47.93
2019-05-01T21:25:54.438Z,31.62
2019-05-01T21:28:24.004Z,28.62
2019-05-01T21:30:51.367Z,21.70
2019-05-01T21:33:18.405Z,33.83
2019-05-01T21:35:45.556Z,20.88
2019-05-01T21:38:12.919Z,35.90
2019-05-01T21:40:41.258Z,27.93
2019-05-01T21:43:09.279Z,35.98
2019-05-01T21:45:37.089Z,38.85
2019-05-01T21:48:04.381Z,21.00
2019-05-01T21:50:33.444Z,27.93
2019-05-01T21:53:03.227Z,25.60
2019-05-01T21:55:32.119Z,24.02
2019-05-01T21:57:59.389Z,19.42
2019-05-01T22:00:28.301Z,16.30
2019-05-01T22:02:57.064Z,21.05
2019-05-01T22:05:24.127Z,20.30
2019-05-01T22:07:51.216Z,15.20
2019-05-01T22:10:21.590Z,26.37
2019-05-01T22:12:49.072Z,20.55
2019-05-01T22:15:18.173Z,22.15
2019-05-01T22:17:57.127Z,25.32
2019-05-01T22:20:29.677Z,18.82
2019-05-01T22:22:58.536Z,13.78
2019-05-01T22:25:27.501Z,18.48
2019-05-01T22:28:05.547Z,17.77
2019-05-01T22:30:42.298Z,16.15
2019-05-01T22:33:08.962Z,18.67
2019-05-01T22:35:40.861Z,17.52
2019-05-01T22:38:08.315Z,11.80
2019-05-01T22:40:43.924Z,11.18
2019-05-01T22:43:11.272Z,11.18
2019-05-01T22:45:38.452Z,7.08
2019-05-01T22:48:05.488Z,13.68
2019-05-01T22:50:32.583Z,10.58
2019-05-01T22:52:59.603Z,16.90
2019-05-01T22:55:26.793Z,10.95
2019-05-01T22:57:53.844Z,16.50
2019-05-01T23:00:29.110Z,15.43
2019-05-01T23:03:00.037Z,10.80
2019-05-01T23:05:27.872Z,14.58
2019-05-01T23:07:57.138Z,16.97
2019-05-01T23:10:24.508Z,18.07
2019-05-01T23:12:51.715Z,10.18
2019-05-01T23:15:21.081Z,11.28
2019-05-01T23:17:48.588Z,11.22
2019-05-01T23:20:15.647Z,14.23
2019-05-01T23:22:42.714Z,13.62
2019-05-01T23:25:09.875Z,12.40
2019-05-01T23:27:36.926Z,15.50
2019-05-01T23:30:06.720Z,14.13
2019-05-01T23:32:36.455Z,12.73
2019-05-01T23:35:05.078Z,10.75
2019-05-01T23:37:32.646Z,16.30
2019-05-01T23:39:59.696Z,17.55
2019-05-01T23:42:26.805Z,12.93
2019-05-01T23:44:53.827Z,11.90
2019-05-01T23:47:20.989Z,11.40
2019-05-01T23:49:52.579Z,12.03
2019-05-01T23:52:16.943Z,13.20
2019-05-01T23:54:43.960Z,13.08
2019-05-01T23:57:14.946Z,14.10
2019-05-01T23:59:40.064Z,16.32
